Terminal Aerodrome Forecast
Issued by NWS

Home | Current Version | Previous Version | Text Only | Print | Product List | Glossary On
Versions: 1 2 3 4 5 6 7 8 9 10 11 12
000
FTUS45 KABQ 031100
TAFROW
TAF
KROW 031134Z 0312/0412 VRB05KT P6SM SCT140
     FM031700 14008KT P6SM BKN090
     FM032000 15013G23KT P6SM VCTS BKN100CB
     FM040000 16011G18KT P6SM VCSH BKN100
     FM040300 15010KT P6SM BKN100=

USA.gov is the U.S. government's official web portal to all federal, state and local government web resources and services.